Adams Mills, Ohio
Current Conditions -  °F | °C
As of 5:21 PM on Sunday 25 Jan 2015 (Local Time) from KZZV Reporting Station
Light Snow Light Snow  
Wind Chill: -3°   Ceiling: 500
Heat Index:   Visibility: 0.5mi
Dew Point: -1°   Wind: 5mph
Humidity: 96%   Direction: 70°ENE
Pressure: 29.75"   Gusts: NA
Location:  40.1482°N, 82.0354°W
Report Text: KZZV 252221Z AUTO 07004KT 1/2SM -SN FG BKN005 OVC009 00/M01 A2975 RMK AO2 P0002 T00001006
Loading
Personal Weather Stations






























Interactive Weather Map New forecast layout! Learn more

10-Day Weather Forecast

Advertisements
Track Severe Weather on mobile